sensor_id;sensor_type;location;lat;lon;timestamp;temperature;humidity
39023;DHT22;25908;51.984;5.928;2023-07-28T00:00:32;18.80;99.90
39023;DHT22;25908;51.984;5.928;2023-07-28T00:02:58;18.80;99.90
39023;DHT22;25908;51.984;5.928;2023-07-28T00:05:24;18.80;99.90
39023;DHT22;25908;51.984;5.928;2023-07-28T00:07:49;18.90;99.90
39023;DHT22;25908;51.984;5.928;2023-07-28T00:10:15;18.80;99.90
39023;DHT22;25908;51.984;5.928;2023-07-28T00:12:40;18.90;99.90
39023;DHT22;25908;51.984;5.928;2023-07-28T00:15:06;18.90;99.90
39023;DHT22;25908;51.984;5.928;2023-07-28T00:17:32;18.90;99.90
39023;DHT22;25908;51.984;5.928;2023-07-28T00:19:57;18.90;99.90
39023;DHT22;25908;51.984;5.928;2023-07-28T00:22:23;18.80;99.90
39023;DHT22;25908;51.984;5.928;2023-07-28T00:24:48;18.80;99.90
39023;DHT22;25908;51.984;5.928;2023-07-28T00:27:14;18.90;99.90
39023;DHT22;25908;51.984;5.928;2023-07-28T00:29:41;18.90;99.90
39023;DHT22;25908;51.984;5.928;2023-07-28T00:32:07;18.90;99.90
39023;DHT22;25908;51.984;5.928;2023-07-28T00:34:32;18.90;99.90
39023;DHT22;25908;51.984;5.928;2023-07-28T00:36:58;18.90;99.90
39023;DHT22;25908;51.984;5.928;2023-07-28T00:39:24;18.90;99.90
39023;DHT22;25908;51.984;5.928;2023-07-28T00:41:49;18.80;99.90
39023;DHT22;25908;51.984;5.928;2023-07-28T00:44:15;18.80;99.90
39023;DHT22;25908;51.984;5.928;2023-07-28T00:46:42;18.80;99.90
39023;DHT22;25908;51.984;5.928;2023-07-28T00:49:08;18.90;99.90
39023;DHT22;25908;51.984;5.928;2023-07-28T00:51:35;18.80;99.90
39023;DHT22;25908;51.984;5.928;2023-07-28T00:54:03;18.80;99.90
39023;DHT22;25908;51.984;5.928;2023-07-28T00:56:30;18.80;99.90
39023;DHT22;25908;51.984;5.928;2023-07-28T00:58:56;18.80;99.90
39023;DHT22;25908;51.984;5.928;2023-07-28T01:01:22;18.90;99.90
39023;DHT22;25908;51.984;5.928;2023-07-28T01:03:49;18.90;99.90
39023;DHT22;25908;51.984;5.928;2023-07-28T01:06:25;18.90;99.90
39023;DHT22;25908;51.984;5.928;2023-07-28T01:09:02;18.80;99.90
39023;DHT22;25908;51.984;5.928;2023-07-28T01:11:29;18.80;99.90
39023;DHT22;25908;51.984;5.928;2023-07-28T01:13:55;18.90;99.90
39023;DHT22;25908;51.984;5.928;2023-07-28T01:16:20;18.80;99.90
39023;DHT22;25908;51.984;5.928;2023-07-28T01:18:46;18.80;99.90
39023;DHT22;25908;51.984;5.928;2023-07-28T01:21:26;18.80;99.90
39023;DHT22;25908;51.984;5.928;2023-07-28T01:24:13;18.90;99.90
39023;DHT22;25908;51.984;5.928;2023-07-28T01:26:40;18.80;99.90
39023;DHT22;25908;51.984;5.928;2023-07-28T01:29:06;18.80;99.90
39023;DHT22;25908;51.984;5.928;2023-07-28T01:31:32;18.90;99.90
39023;DHT22;25908;51.984;5.928;2023-07-28T01:33:58;18.80;99.90
39023;DHT22;25908;51.984;5.928;2023-07-28T01:36:24;18.90;99.90
39023;DHT22;25908;51.984;5.928;2023-07-28T01:38:49;18.90;99.90
39023;DHT22;25908;51.984;5.928;2023-07-28T01:41:15;18.90;99.90
39023;DHT22;25908;51.984;5.928;2023-07-28T01:43:40;18.90;99.90
39023;DHT22;25908;51.984;5.928;2023-07-28T01:46:07;18.80;99.90
39023;DHT22;25908;51.984;5.928;2023-07-28T01:48:33;18.90;99.90
39023;DHT22;25908;51.984;5.928;2023-07-28T01:50:59;18.90;99.90
39023;DHT22;25908;51.984;5.928;2023-07-28T01:53:24;18.90;99.90
39023;DHT22;25908;51.984;5.928;2023-07-28T01:55:50;18.90;99.90
39023;DHT22;25908;51.984;5.928;2023-07-28T01:58:16;18.90;99.90
39023;DHT22;25908;51.984;5.928;2023-07-28T02:00:41;18.90;99.90
39023;DHT22;25908;51.984;5.928;2023-07-28T02:03:07;18.90;99.90
39023;DHT22;25908;51.984;5.928;2023-07-28T02:05:33;18.90;99.90
39023;DHT22;25908;51.984;5.928;2023-07-28T02:07:58;18.80;99.90
39023;DHT22;25908;51.984;5.928;2023-07-28T02:10:26;18.90;99.90
39023;DHT22;25908;51.984;5.928;2023-07-28T02:12:52;18.90;99.90
39023;DHT22;25908;51.984;5.928;2023-07-28T02:15:18;18.90;99.90
39023;DHT22;25908;51.984;5.928;2023-07-28T02:17:44;18.90;99.90
39023;DHT22;25908;51.984;5.928;2023-07-28T02:20:10;18.90;99.90
39023;DHT22;25908;51.984;5.928;2023-07-28T02:22:42;18.90;99.90
39023;DHT22;25908;51.984;5.928;2023-07-28T02:25:09;18.90;99.90
39023;DHT22;25908;51.984;5.928;2023-07-28T02:27:35;18.90;99.90
39023;DHT22;25908;51.984;5.928;2023-07-28T02:30:01;18.90;99.90
39023;DHT22;25908;51.984;5.928;2023-07-28T02:32:28;18.90;99.90
39023;DHT22;25908;51.984;5.928;2023-07-28T02:34:54;18.80;99.90
39023;DHT22;25908;51.984;5.928;2023-07-28T02:37:20;18.90;99.90
39023;DHT22;25908;51.984;5.928;2023-07-28T02:39:45;18.90;99.90
39023;DHT22;25908;51.984;5.928;2023-07-28T02:42:11;18.90;99.90
39023;DHT22;25908;51.984;5.928;2023-07-28T02:44:37;18.90;99.90
39023;DHT22;25908;51.984;5.928;2023-07-28T02:47:03;18.90;99.90
39023;DHT22;25908;51.984;5.928;2023-07-28T02:49:29;18.90;99.90
39023;DHT22;25908;51.984;5.928;2023-07-28T02:51:54;18.90;99.90
39023;DHT22;25908;51.984;5.928;2023-07-28T02:54:20;18.90;99.90
39023;DHT22;25908;51.984;5.928;2023-07-28T02:56:49;18.90;99.90
39023;DHT22;25908;51.984;5.928;2023-07-28T02:59:14;18.90;99.90
39023;DHT22;25908;51.984;5.928;2023-07-28T03:01:40;18.90;99.90
39023;DHT22;25908;51.984;5.928;2023-07-28T03:04:06;18.90;99.90
39023;DHT22;25908;51.984;5.928;2023-07-28T03:06:31;18.90;99.90
39023;DHT22;25908;51.984;5.928;2023-07-28T03:08:58;18.90;99.90
39023;DHT22;25908;51.984;5.928;2023-07-28T03:11:24;18.90;99.90
39023;DHT22;25908;51.984;5.928;2023-07-28T03:13:49;18.90;99.90
39023;DHT22;25908;51.984;5.928;2023-07-28T03:16:15;18.90;99.90
39023;DHT22;25908;51.984;5.928;2023-07-28T03:18:41;18.90;99.90
39023;DHT22;25908;51.984;5.928;2023-07-28T03:21:08;18.90;99.90
39023;DHT22;25908;51.984;5.928;2023-07-28T03:23:33;18.90;99.90
39023;DHT22;25908;51.984;5.928;2023-07-28T03:25:59;18.90;99.90
39023;DHT22;25908;51.984;5.928;2023-07-28T03:28:24;18.90;99.90
39023;DHT22;25908;51.984;5.928;2023-07-28T03:30:50;18.90;99.90
39023;DHT22;25908;51.984;5.928;2023-07-28T03:33:16;18.90;99.90
39023;DHT22;25908;51.984;5.928;2023-07-28T03:35:41;18.90;99.90
39023;DHT22;25908;51.984;5.928;2023-07-28T03:38:07;18.90;99.90
39023;DHT22;25908;51.984;5.928;2023-07-28T03:40:33;18.90;99.90
39023;DHT22;25908;51.984;5.928;2023-07-28T03:42:58;18.90;99.90
39023;DHT22;25908;51.984;5.928;2023-07-28T03:45:24;18.90;99.90
39023;DHT22;25908;51.984;5.928;2023-07-28T03:47:50;18.90;99.90
39023;DHT22;25908;51.984;5.928;2023-07-28T03:50:15;18.90;99.90
39023;DHT22;25908;51.984;5.928;2023-07-28T03:52:41;18.90;99.90
39023;DHT22;25908;51.984;5.928;2023-07-28T03:55:07;18.90;99.90
39023;DHT22;25908;51.984;5.928;2023-07-28T03:57:32;18.90;99.90
39023;DHT22;25908;51.984;5.928;2023-07-28T03:59:58;18.90;99.90
39023;DHT22;25908;51.984;5.928;2023-07-28T04:02:23;18.90;99.90
39023;DHT22;25908;51.984;5.928;2023-07-28T04:04:56;18.90;99.90
39023;DHT22;25908;51.984;5.928;2023-07-28T04:07:22;18.90;99.90
39023;DHT22;25908;51.984;5.928;2023-07-28T04:09:47;18.90;99.90
39023;DHT22;25908;51.984;5.928;2023-07-28T04:12:13;18.90;99.90
39023;DHT22;25908;51.984;5.928;2023-07-28T04:14:39;18.90;99.90
39023;DHT22;25908;51.984;5.928;2023-07-28T04:17:04;18.90;99.90
39023;DHT22;25908;51.984;5.928;2023-07-28T04:19:30;18.90;99.90
39023;DHT22;25908;51.984;5.928;2023-07-28T04:22:02;18.90;99.90
39023;DHT22;25908;51.984;5.928;2023-07-28T04:24:28;18.90;99.90
39023;DHT22;25908;51.984;5.928;2023-07-28T04:26:53;18.90;99.90
39023;DHT22;25908;51.984;5.928;2023-07-28T04:29:19;18.90;99.90
39023;DHT22;25908;51.984;5.928;2023-07-28T04:31:44;18.90;99.90
39023;DHT22;25908;51.984;5.928;2023-07-28T04:34:10;18.80;99.90
39023;DHT22;25908;51.984;5.928;2023-07-28T04:36:36;18.90;99.90
39023;DHT22;25908;51.984;5.928;2023-07-28T04:39:01;18.90;99.90
39023;DHT22;25908;51.984;5.928;2023-07-28T04:41:27;18.90;99.90
39023;DHT22;25908;51.984;5.928;2023-07-28T04:43:52;18.90;99.90
39023;DHT22;25908;51.984;5.928;2023-07-28T04:46:18;18.90;99.90
39023;DHT22;25908;51.984;5.928;2023-07-28T04:48:45;18.90;99.90
39023;DHT22;25908;51.984;5.928;2023-07-28T04:51:11;18.90;99.90
39023;DHT22;25908;51.984;5.928;2023-07-28T04:53:36;18.90;99.90
39023;DHT22;25908;51.984;5.928;2023-07-28T04:56:02;18.90;99.90
39023;DHT22;25908;51.984;5.928;2023-07-28T04:58:28;18.90;99.90
39023;DHT22;25908;51.984;5.928;2023-07-28T05:00:54;18.90;99.90
39023;DHT22;25908;51.984;5.928;2023-07-28T05:03:20;18.90;99.90
39023;DHT22;25908;51.984;5.928;2023-07-28T05:05:45;18.90;99.90
39023;DHT22;25908;51.984;5.928;2023-07-28T05:08:11;18.90;99.90
39023;DHT22;25908;51.984;5.928;2023-07-28T05:10:37;18.90;99.90
39023;DHT22;25908;51.984;5.928;2023-07-28T05:13:02;18.90;99.90
39023;DHT22;25908;51.984;5.928;2023-07-28T05:15:30;18.90;99.90
39023;DHT22;25908;51.984;5.928;2023-07-28T05:17:56;18.90;99.90
39023;DHT22;25908;51.984;5.928;2023-07-28T05:20:22;18.90;99.90
39023;DHT22;25908;51.984;5.928;2023-07-28T05:22:47;18.90;99.90
39023;DHT22;25908;51.984;5.928;2023-07-28T05:25:13;18.90;99.90
39023;DHT22;25908;51.984;5.928;2023-07-28T05:27:39;18.90;99.90
39023;DHT22;25908;51.984;5.928;2023-07-28T05:30:05;18.90;99.90
39023;DHT22;25908;51.984;5.928;2023-07-28T05:32:31;18.90;99.90
39023;DHT22;25908;51.984;5.928;2023-07-28T05:34:57;18.90;99.90
39023;DHT22;25908;51.984;5.928;2023-07-28T05:37:23;18.90;99.90
39023;DHT22;25908;51.984;5.928;2023-07-28T05:39:49;18.90;99.90
39023;DHT22;25908;51.984;5.928;2023-07-28T05:42:14;19.00;99.90
39023;DHT22;25908;51.984;5.928;2023-07-28T05:44:40;19.00;99.90
39023;DHT22;25908;51.984;5.928;2023-07-28T05:47:06;18.90;99.90
39023;DHT22;25908;51.984;5.928;2023-07-28T05:49:31;18.90;99.90
39023;DHT22;25908;51.984;5.928;2023-07-28T05:51:57;18.90;99.90
39023;DHT22;25908;51.984;5.928;2023-07-28T05:54:23;19.00;99.90
39023;DHT22;25908;51.984;5.928;2023-07-28T05:56:48;19.00;99.90
39023;DHT22;25908;51.984;5.928;2023-07-28T05:59:14;19.00;99.90
39023;DHT22;25908;51.984;5.928;2023-07-28T06:01:39;19.00;99.90
39023;DHT22;25908;51.984;5.928;2023-07-28T06:04:05;19.00;99.90
39023;DHT22;25908;51.984;5.928;2023-07-28T06:06:31;19.00;99.90
39023;DHT22;25908;51.984;5.928;2023-07-28T06:08:57;19.00;99.90
39023;DHT22;25908;51.984;5.928;2023-07-28T06:11:23;19.10;99.90
39023;DHT22;25908;51.984;5.928;2023-07-28T06:13:48;19.10;99.90
39023;DHT22;25908;51.984;5.928;2023-07-28T06:16:14;19.10;99.90
39023;DHT22;25908;51.984;5.928;2023-07-28T06:18:40;19.10;99.90
39023;DHT22;25908;51.984;5.928;2023-07-28T06:21:05;19.10;99.90
39023;DHT22;25908;51.984;5.928;2023-07-28T06:23:31;19.10;99.90
39023;DHT22;25908;51.984;5.928;2023-07-28T06:25:57;19.20;99.90
39023;DHT22;25908;51.984;5.928;2023-07-28T06:28:22;19.20;99.90
39023;DHT22;25908;51.984;5.928;2023-07-28T06:30:56;19.20;99.90
39023;DHT22;25908;51.984;5.928;2023-07-28T06:33:22;19.20;99.90
39023;DHT22;25908;51.984;5.928;2023-07-28T06:35:48;19.30;99.90
39023;DHT22;25908;51.984;5.928;2023-07-28T06:38:13;19.20;99.90
39023;DHT22;25908;51.984;5.928;2023-07-28T06:40:39;19.30;99.90
39023;DHT22;25908;51.984;5.928;2023-07-28T06:43:05;19.30;99.90
39023;DHT22;25908;51.984;5.928;2023-07-28T06:45:32;19.30;99.90
39023;DHT22;25908;51.984;5.928;2023-07-28T06:47:58;19.30;99.90
39023;DHT22;25908;51.984;5.928;2023-07-28T06:50:23;19.30;99.90
39023;DHT22;25908;51.984;5.928;2023-07-28T06:52:49;19.30;99.90
39023;DHT22;25908;51.984;5.928;2023-07-28T06:55:16;19.40;99.90
39023;DHT22;25908;51.984;5.928;2023-07-28T06:57:41;19.30;99.90
39023;DHT22;25908;51.984;5.928;2023-07-28T07:00:08;19.40;99.90
39023;DHT22;25908;51.984;5.928;2023-07-28T07:02:36;19.30;99.90
39023;DHT22;25908;51.984;5.928;2023-07-28T07:05:02;19.40;99.90
39023;DHT22;25908;51.984;5.928;2023-07-28T07:07:28;19.30;99.90
39023;DHT22;25908;51.984;5.928;2023-07-28T07:09:54;19.30;99.90
39023;DHT22;25908;51.984;5.928;2023-07-28T07:12:19;19.30;99.90
39023;DHT22;25908;51.984;5.928;2023-07-28T07:14:46;19.30;99.90
39023;DHT22;25908;51.984;5.928;2023-07-28T07:17:12;19.30;99.90
39023;DHT22;25908;51.984;5.928;2023-07-28T07:19:38;19.30;99.90
39023;DHT22;25908;51.984;5.928;2023-07-28T07:22:05;19.30;99.90
39023;DHT22;25908;51.984;5.928;2023-07-28T07:24:31;19.30;99.90
39023;DHT22;25908;51.984;5.928;2023-07-28T07:26:56;19.30;99.90
39023;DHT22;25908;51.984;5.928;2023-07-28T07:29:22;19.40;99.90
39023;DHT22;25908;51.984;5.928;2023-07-28T07:31:47;19.40;99.90
39023;DHT22;25908;51.984;5.928;2023-07-28T07:34:14;19.50;99.90
39023;DHT22;25908;51.984;5.928;2023-07-28T07:36:39;19.50;99.90
39023;DHT22;25908;51.984;5.928;2023-07-28T07:39:06;19.50;99.90
39023;DHT22;25908;51.984;5.928;2023-07-28T07:41:31;19.60;99.90
39023;DHT22;25908;51.984;5.928;2023-07-28T07:43:57;19.60;99.90
39023;DHT22;25908;51.984;5.928;2023-07-28T07:46:23;19.60;99.90
39023;DHT22;25908;51.984;5.928;2023-07-28T07:48:49;19.60;99.90
39023;DHT22;25908;51.984;5.928;2023-07-28T07:51:16;19.60;99.90
39023;DHT22;25908;51.984;5.928;2023-07-28T07:53:42;19.60;99.90
39023;DHT22;25908;51.984;5.928;2023-07-28T07:56:07;19.60;99.90
39023;DHT22;25908;51.984;5.928;2023-07-28T07:58:34;19.70;99.90
39023;DHT22;25908;51.984;5.928;2023-07-28T08:01:00;19.70;99.90
39023;DHT22;25908;51.984;5.928;2023-07-28T08:03:26;19.80;99.90
39023;DHT22;25908;51.984;5.928;2023-07-28T08:05:53;19.80;99.90
39023;DHT22;25908;51.984;5.928;2023-07-28T08:08:19;19.80;99.90
39023;DHT22;25908;51.984;5.928;2023-07-28T08:10:49;19.80;99.90
39023;DHT22;25908;51.984;5.928;2023-07-28T08:13:15;19.90;99.90
39023;DHT22;25908;51.984;5.928;2023-07-28T08:15:43;20.00;99.90
39023;DHT22;25908;51.984;5.928;2023-07-28T08:18:09;20.00;99.90
39023;DHT22;25908;51.984;5.928;2023-07-28T08:20:34;20.00;99.90
39023;DHT22;25908;51.984;5.928;2023-07-28T08:23:00;20.00;99.90
39023;DHT22;25908;51.984;5.928;2023-07-28T08:25:25;20.00;99.90
39023;DHT22;25908;51.984;5.928;2023-07-28T08:27:51;20.00;99.90
39023;DHT22;25908;51.984;5.928;2023-07-28T08:30:17;20.00;99.90
39023;DHT22;25908;51.984;5.928;2023-07-28T08:32:43;20.00;99.90
39023;DHT22;25908;51.984;5.928;2023-07-28T08:35:09;20.00;99.90
39023;DHT22;25908;51.984;5.928;2023-07-28T08:37:35;20.00;99.90
39023;DHT22;25908;51.984;5.928;2023-07-28T08:40:01;20.10;99.90
39023;DHT22;25908;51.984;5.928;2023-07-28T08:42:30;20.10;99.90
39023;DHT22;25908;51.984;5.928;2023-07-28T08:44:55;20.10;99.90
39023;DHT22;25908;51.984;5.928;2023-07-28T08:47:21;20.10;99.90
39023;DHT22;25908;51.984;5.928;2023-07-28T08:49:47;20.10;99.90
39023;DHT22;25908;51.984;5.928;2023-07-28T08:52:15;20.10;99.90
39023;DHT22;25908;51.984;5.928;2023-07-28T08:54:41;20.10;99.90
39023;DHT22;25908;51.984;5.928;2023-07-28T08:57:09;20.10;99.90
39023;DHT22;25908;51.984;5.928;2023-07-28T08:59:34;20.10;99.90
39023;DHT22;25908;51.984;5.928;2023-07-28T09:02:01;20.20;99.90
39023;DHT22;25908;51.984;5.928;2023-07-28T09:04:27;20.30;99.90
39023;DHT22;25908;51.984;5.928;2023-07-28T09:06:53;20.40;99.90
39023;DHT22;25908;51.984;5.928;2023-07-28T09:09:21;20.40;99.90
39023;DHT22;25908;51.984;5.928;2023-07-28T09:11:52;20.50;99.90
39023;DHT22;25908;51.984;5.928;2023-07-28T09:14:20;20.60;99.90
39023;DHT22;25908;51.984;5.928;2023-07-28T09:16:47;20.60;99.90
39023;DHT22;25908;51.984;5.928;2023-07-28T09:19:13;20.60;99.90
39023;DHT22;25908;51.984;5.928;2023-07-28T09:21:42;20.60;99.90
39023;DHT22;25908;51.984;5.928;2023-07-28T09:24:10;20.60;99.90
39023;DHT22;25908;51.984;5.928;2023-07-28T09:26:37;20.60;99.90
39023;DHT22;25908;51.984;5.928;2023-07-28T09:29:14;20.60;99.90
39023;DHT22;25908;51.984;5.928;2023-07-28T09:31:44;20.60;99.90
39023;DHT22;25908;51.984;5.928;2023-07-28T09:34:10;20.50;99.90
39023;DHT22;25908;51.984;5.928;2023-07-28T09:36:36;20.60;99.90
39023;DHT22;25908;51.984;5.928;2023-07-28T09:39:06;20.60;99.90
39023;DHT22;25908;51.984;5.928;2023-07-28T09:41:38;20.70;99.90
39023;DHT22;25908;51.984;5.928;2023-07-28T09:44:04;20.70;99.90
39023;DHT22;25908;51.984;5.928;2023-07-28T09:46:33;20.80;99.90
39023;DHT22;25908;51.984;5.928;2023-07-28T09:49:00;20.90;99.90
39023;DHT22;25908;51.984;5.928;2023-07-28T09:51:31;21.10;99.90
39023;DHT22;25908;51.984;5.928;2023-07-28T09:54:11;21.30;99.90
39023;DHT22;25908;51.984;5.928;2023-07-28T09:56:38;21.50;99.90
39023;DHT22;25908;51.984;5.928;2023-07-28T09:59:11;21.80;99.90
39023;DHT22;25908;51.984;5.928;2023-07-28T10:01:38;22.10;99.90
39023;DHT22;25908;51.984;5.928;2023-07-28T10:04:05;22.30;99.90
39023;DHT22;25908;51.984;5.928;2023-07-28T10:06:32;22.40;99.90
39023;DHT22;25908;51.984;5.928;2023-07-28T10:08:59;22.30;99.90
39023;DHT22;25908;51.984;5.928;2023-07-28T10:11:25;22.50;99.90
39023;DHT22;25908;51.984;5.928;2023-07-28T10:13:54;22.60;99.90
39023;DHT22;25908;51.984;5.928;2023-07-28T10:16:20;22.70;99.90
39023;DHT22;25908;51.984;5.928;2023-07-28T10:18:54;22.80;99.90
39023;DHT22;25908;51.984;5.928;2023-07-28T10:21:20;22.90;99.90
39023;DHT22;25908;51.984;5.928;2023-07-28T10:23:56;23.10;99.90
39023;DHT22;25908;51.984;5.928;2023-07-28T10:26:38;23.40;99.90
39023;DHT22;25908;51.984;5.928;2023-07-28T10:29:13;23.70;99.90
39023;DHT22;25908;51.984;5.928;2023-07-28T10:31:50;24.10;99.90
39023;DHT22;25908;51.984;5.928;2023-07-28T10:34:17;24.40;99.90
39023;DHT22;25908;51.984;5.928;2023-07-28T10:36:44;24.40;99.90
39023;DHT22;25908;51.984;5.928;2023-07-28T10:39:17;24.30;99.90
39023;DHT22;25908;51.984;5.928;2023-07-28T10:42:06;24.20;99.90
39023;DHT22;25908;51.984;5.928;2023-07-28T10:44:32;24.20;99.90
39023;DHT22;25908;51.984;5.928;2023-07-28T10:46:58;24.20;99.90
39023;DHT22;25908;51.984;5.928;2023-07-28T10:49:28;24.10;99.90
39023;DHT22;25908;51.984;5.928;2023-07-28T10:51:54;24.00;99.90
39023;DHT22;25908;51.984;5.928;2023-07-28T10:54:19;24.10;99.90
39023;DHT22;25908;51.984;5.928;2023-07-28T10:56:46;24.20;99.90
39023;DHT22;25908;51.984;5.928;2023-07-28T10:59:13;24.50;99.90
39023;DHT22;25908;51.984;5.928;2023-07-28T11:01:40;24.60;99.90
39023;DHT22;25908;51.984;5.928;2023-07-28T11:06:35;24.50;99.90
39023;DHT22;25908;51.984;5.928;2023-07-28T11:09:01;24.50;99.90
39023;DHT22;25908;51.984;5.928;2023-07-28T11:11:27;24.80;99.90
39023;DHT22;25908;51.984;5.928;2023-07-28T11:13:53;25.00;99.90
39023;DHT22;25908;51.984;5.928;2023-07-28T11:16:20;25.00;99.90
39023;DHT22;25908;51.984;5.928;2023-07-28T11:18:46;24.90;99.90
39023;DHT22;25908;51.984;5.928;2023-07-28T11:21:12;24.80;99.90
39023;DHT22;25908;51.984;5.928;2023-07-28T11:23:37;24.70;99.90
39023;DHT22;25908;51.984;5.928;2023-07-28T11:26:05;24.60;99.90
39023;DHT22;25908;51.984;5.928;2023-07-28T11:28:32;24.50;99.90
39023;DHT22;25908;51.984;5.928;2023-07-28T11:30:59;24.50;99.90
39023;DHT22;25908;51.984;5.928;2023-07-28T11:33:25;24.50;99.90
39023;DHT22;25908;51.984;5.928;2023-07-28T11:35:50;24.50;99.90
39023;DHT22;25908;51.984;5.928;2023-07-28T11:38:16;24.40;99.90
39023;DHT22;25908;51.984;5.928;2023-07-28T11:40:43;24.40;99.90
39023;DHT22;25908;51.984;5.928;2023-07-28T11:43:09;24.50;99.90
39023;DHT22;25908;51.984;5.928;2023-07-28T11:45:35;24.40;99.90
39023;DHT22;25908;51.984;5.928;2023-07-28T11:48:05;24.40;99.90
39023;DHT22;25908;51.984;5.928;2023-07-28T11:50:38;24.50;99.90
39023;DHT22;25908;51.984;5.928;2023-07-28T11:53:04;24.50;99.90
39023;DHT22;25908;51.984;5.928;2023-07-28T11:55:31;24.60;99.90
39023;DHT22;25908;51.984;5.928;2023-07-28T11:57:58;24.70;99.90
39023;DHT22;25908;51.984;5.928;2023-07-28T12:00:35;24.90;99.90
39023;DHT22;25908;51.984;5.928;2023-07-28T12:03:10;25.00;99.90
39023;DHT22;25908;51.984;5.928;2023-07-28T12:05:37;25.10;99.90
39023;DHT22;25908;51.984;5.928;2023-07-28T12:08:03;25.10;99.90
39023;DHT22;25908;51.984;5.928;2023-07-28T12:10:29;25.10;99.90
39023;DHT22;25908;51.984;5.928;2023-07-28T12:12:57;25.30;99.90
39023;DHT22;25908;51.984;5.928;2023-07-28T12:15:26;25.30;99.90
39023;DHT22;25908;51.984;5.928;2023-07-28T12:18:03;25.30;99.90
39023;DHT22;25908;51.984;5.928;2023-07-28T12:20:33;25.30;99.90
39023;DHT22;25908;51.984;5.928;2023-07-28T12:22:59;25.30;99.90
39023;DHT22;25908;51.984;5.928;2023-07-28T12:25:24;25.30;99.90
39023;DHT22;25908;51.984;5.928;2023-07-28T12:27:50;25.30;99.90
39023;DHT22;25908;51.984;5.928;2023-07-28T12:30:16;25.30;99.90
39023;DHT22;25908;51.984;5.928;2023-07-28T12:32:41;25.20;99.90
39023;DHT22;25908;51.984;5.928;2023-07-28T12:35:07;25.20;99.60
39023;DHT22;25908;51.984;5.928;2023-07-28T12:37:34;25.10;99.70
39023;DHT22;25908;51.984;5.928;2023-07-28T12:39:59;25.10;99.90
39023;DHT22;25908;51.984;5.928;2023-07-28T12:42:26;25.10;99.90
39023;DHT22;25908;51.984;5.928;2023-07-28T12:44:52;25.20;99.70
39023;DHT22;25908;51.984;5.928;2023-07-28T12:47:18;25.20;99.70
39023;DHT22;25908;51.984;5.928;2023-07-28T12:49:43;25.20;99.30
39023;DHT22;25908;51.984;5.928;2023-07-28T12:52:09;25.20;99.10
39023;DHT22;25908;51.984;5.928;2023-07-28T12:54:35;25.10;99.20
39023;DHT22;25908;51.984;5.928;2023-07-28T12:57:00;25.10;99.40
39023;DHT22;25908;51.984;5.928;2023-07-28T12:59:27;25.20;99.50
39023;DHT22;25908;51.984;5.928;2023-07-28T13:01:54;25.20;99.30
39023;DHT22;25908;51.984;5.928;2023-07-28T13:04:19;25.20;99.00
39023;DHT22;25908;51.984;5.928;2023-07-28T13:06:45;25.10;99.00
39023;DHT22;25908;51.984;5.928;2023-07-28T13:09:11;25.10;99.00
39023;DHT22;25908;51.984;5.928;2023-07-28T13:11:36;25.20;99.20
39023;DHT22;25908;51.984;5.928;2023-07-28T13:14:03;25.20;99.20
39023;DHT22;25908;51.984;5.928;2023-07-28T13:16:29;25.20;99.40
39023;DHT22;25908;51.984;5.928;2023-07-28T13:18:54;25.30;99.20
39023;DHT22;25908;51.984;5.928;2023-07-28T13:21:20;25.30;99.10
39023;DHT22;25908;51.984;5.928;2023-07-28T13:23:46;25.30;99.10
39023;DHT22;25908;51.984;5.928;2023-07-28T13:26:12;25.30;99.10
39023;DHT22;25908;51.984;5.928;2023-07-28T13:28:37;25.30;99.20
39023;DHT22;25908;51.984;5.928;2023-07-28T13:31:05;25.40;99.30
39023;DHT22;25908;51.984;5.928;2023-07-28T13:33:30;25.40;99.10
39023;DHT22;25908;51.984;5.928;2023-07-28T13:35:56;25.50;99.10
39023;DHT22;25908;51.984;5.928;2023-07-28T13:38:22;25.50;98.80
39023;DHT22;25908;51.984;5.928;2023-07-28T13:40:47;25.30;98.20
39023;DHT22;25908;51.984;5.928;2023-07-28T13:43:13;25.30;98.10
39023;DHT22;25908;51.984;5.928;2023-07-28T13:45:39;25.30;98.30
39023;DHT22;25908;51.984;5.928;2023-07-28T13:48:04;25.30;98.10
39023;DHT22;25908;51.984;5.928;2023-07-28T13:50:30;25.20;97.50
39023;DHT22;25908;51.984;5.928;2023-07-28T13:52:55;25.10;97.40
39023;DHT22;25908;51.984;5.928;2023-07-28T13:55:21;25.10;97.50
39023;DHT22;25908;51.984;5.928;2023-07-28T13:57:47;25.10;97.60
39023;DHT22;25908;51.984;5.928;2023-07-28T14:00:13;25.10;97.60
39023;DHT22;25908;51.984;5.928;2023-07-28T14:02:39;25.10;97.70
39023;DHT22;25908;51.984;5.928;2023-07-28T14:05:05;25.20;97.20
39023;DHT22;25908;51.984;5.928;2023-07-28T14:07:31;25.20;97.00
39023;DHT22;25908;51.984;5.928;2023-07-28T14:09:57;25.20;97.20
39023;DHT22;25908;51.984;5.928;2023-07-28T14:12:23;25.20;97.30
39023;DHT22;25908;51.984;5.928;2023-07-28T14:14:48;25.20;97.30
39023;DHT22;25908;51.984;5.928;2023-07-28T14:17:15;25.20;97.10
39023;DHT22;25908;51.984;5.928;2023-07-28T14:19:41;25.20;96.70
39023;DHT22;25908;51.984;5.928;2023-07-28T14:22:07;25.10;96.70
39023;DHT22;25908;51.984;5.928;2023-07-28T14:24:33;25.10;96.70
39023;DHT22;25908;51.984;5.928;2023-07-28T14:26:59;25.10;96.80
39023;DHT22;25908;51.984;5.928;2023-07-28T14:29:25;25.10;96.90
39023;DHT22;25908;51.984;5.928;2023-07-28T14:31:50;25.20;96.90
39023;DHT22;25908;51.984;5.928;2023-07-28T14:34:16;25.10;96.80
39023;DHT22;25908;51.984;5.928;2023-07-28T14:36:41;25.10;96.80
39023;DHT22;25908;51.984;5.928;2023-07-28T14:39:07;25.10;96.80
39023;DHT22;25908;51.984;5.928;2023-07-28T14:41:34;25.00;96.90
39023;DHT22;25908;51.984;5.928;2023-07-28T14:44:00;24.90;96.80
39023;DHT22;25908;51.984;5.928;2023-07-28T14:46:26;25.00;96.80
39023;DHT22;25908;51.984;5.928;2023-07-28T14:48:51;24.90;96.70
39023;DHT22;25908;51.984;5.928;2023-07-28T14:51:17;24.90;96.70
39023;DHT22;25908;51.984;5.928;2023-07-28T14:53:43;25.00;96.70
39023;DHT22;25908;51.984;5.928;2023-07-28T14:56:11;25.00;96.80
39023;DHT22;25908;51.984;5.928;2023-07-28T14:58:36;25.10;96.80
39023;DHT22;25908;51.984;5.928;2023-07-28T15:01:02;25.10;96.80
39023;DHT22;25908;51.984;5.928;2023-07-28T15:03:30;25.10;96.70
39023;DHT22;25908;51.984;5.928;2023-07-28T15:05:56;25.10;96.70
39023;DHT22;25908;51.984;5.928;2023-07-28T15:08:22;25.00;96.70
39023;DHT22;25908;51.984;5.928;2023-07-28T15:10:47;25.00;96.80
39023;DHT22;25908;51.984;5.928;2023-07-28T15:13:13;25.00;97.00
39023;DHT22;25908;51.984;5.928;2023-07-28T15:15:39;24.90;97.00
39023;DHT22;25908;51.984;5.928;2023-07-28T15:18:04;24.90;97.00
39023;DHT22;25908;51.984;5.928;2023-07-28T15:20:30;24.80;97.00
39023;DHT22;25908;51.984;5.928;2023-07-28T15:22:55;24.80;97.00
39023;DHT22;25908;51.984;5.928;2023-07-28T15:25:21;24.70;97.10
39023;DHT22;25908;51.984;5.928;2023-07-28T15:27:47;24.70;97.20